Oostrozebeke, Belgium
Current Conditions -  °F | °C
As of 3:30 PM on Monday 20 Oct 2014 (Local Time) from LFQQ Reporting Station
Scattered Clouds Scattered Clouds  
Wind Chill: 64°   Ceiling: Unl
Heat Index: 64°   Visibility: 6mi
Dew Point: 52°   Wind: 18mph
Humidity: 64%   Direction: 240°WSW
Pressure: 30.03"   Gusts: NA
Location:  50.92°N, 3.34°E
Report Text: LFQQ 201330Z 24016KT 9999 SCT030 18/11 Q1017 NOSIG
Loading
Personal Weather Stations






























Interactive Weather Map
Tropical Storm Tracking
New forecast layout! Learn more

10-Day Weather Forecast

Advertisements
Track Severe Weather on mobile